Map

Track Data

SID SEASON NUMBER BASIN SUBBASIN NAME ISO_TIME NATURE LAT LON WMO_WIND WMO_PRES WMO_AGENCY TRACK_TYPE DIST2LAND LANDFALL IFLAG USA_AGENCY USA_ATCF_ID USA_LAT USA_LON USA_RECORD USA_STATUS USA_WIND USA_PRES USA_SSHS USA_R34_NE USA_R34_SE USA_R34_SW USA_R34_NW USA_R50_NE USA_R50_SE USA_R50_SW USA_R50_NW USA_R64_NE USA_R64_SE USA_R64_SW USA_R64_NW USA_POCI USA_ROCI USA_RMW USA_EYE TOKYO_LAT TOKYO_LON TOKYO_GRADE TOKYO_WIND TOKYO_PRES TOKYO_R50_DIR TOKYO_R50_LONG TOKYO_R50_SHORT TOKYO_R30_DIR TOKYO_R30_LONG TOKYO_R30_SHORT TOKYO_LAND CMA_LAT CMA_LON CMA_CAT CMA_WIND CMA_PRES HKO_LAT HKO_LON HKO_CAT HKO_WIND HKO_PRES NEWDELHI_LAT NEWDELHI_LON NEWDELHI_GRADE NEWDELHI_WIND NEWDELHI_PRES NEWDELHI_CI NEWDELHI_DP NEWDELHI_POCI REUNION_LAT REUNION_LON REUNION_TYPE REUNION_WIND REUNION_PRES REUNION_TNUM REUNION_CI REUNION_RMW REUNION_R34_NE REUNION_R34_SE REUNION_R34_SW REUNION_R34_NW REUNION_R50_NE REUNION_R50_SE REUNION_R50_SW REUNION_R50_NW REUNION_R64_NE REUNION_R64_SE REUNION_R64_SW REUNION_R64_NW BOM_LAT BOM_LON BOM_TYPE BOM_WIND BOM_PRES BOM_TNUM BOM_CI BOM_RMW BOM_R34_NE BOM_R34_SE BOM_R34_SW BOM_R34_NW BOM_R50_NE BOM_R50_SE BOM_R50_SW BOM_R50_NW BOM_R64_NE BOM_R64_SE BOM_R64_SW BOM_R64_NW BOM_ROCI BOM_POCI BOM_EYE BOM_POS_METHOD BOM_PRES_METHOD NADI_LAT NADI_LON NADI_CAT NADI_WIND NADI_PRES WELLINGTON_LAT WELLINGTON_LON WELLINGTON_WIND WELLINGTON_PRES DS824_LAT DS824_LON DS824_STAGE DS824_WIND DS824_PRES TD9636_LAT TD9636_LON TD9636_STAGE TD9636_WIND TD9636_PRES TD9635_LAT TD9635_LON TD9635_WIND TD9635_PRES TD9635_ROCI NEUMANN_LAT NEUMANN_LON NEUMANN_CLASS NEUMANN_WIND NEUMANN_PRES MLC_LAT MLC_LON MLC_CLASS MLC_WIND MLC_PRES USA_GUST BOM_GUST BOM_GUST_PER REUNION_GUST REUNION_GUST_PER USA_SEAHGT USA_SEARAD_NE USA_SEARAD_SE USA_SEARAD_SW USA_SEARAD_NW STORM_SPEED STORM_DIR
1922211N12140 1922 40 WP MM NOT_NAMED 1922-07-29 22:00:00 NR 12.0000 140.000 main 1503 1468 __________O___ -1 12.0000 140.000 7 20 277
1922211N12140 1922 40 WP MM NOT_NAMED 1922-07-30 00:00:00 NR 12.0809 139.333 main 1468 1364 __________P___ -1 12.0809 139.333 7 20 277
1922211N12140 1922 40 WP MM NOT_NAMED 1922-07-30 03:00:00 NR 12.2142 138.332 main 1364 1262 __________P___ -1 12.2142 138.332 7 20 279
1922211N12140 1922 40 WP MM NOT_NAMED 1922-07-30 06:00:00 NR 12.3822 137.332 main 1262 1157 __________P___ -1 12.3822 137.332 7 20 281
1922211N12140 1922 40 WP MM NOT_NAMED 1922-07-30 09:00:00 NR 12.6080 136.333 main 1157 1137 __________P___ -1 12.6080 136.333 7 20 284
1922211N12140 1922 40 WP MM NOT_NAMED 1922-07-30 10:00:00 NR 12.7000 136.000 main 1126 1055 __________O___ -1 12.7000 136.000 7 20 287
1922211N12140 1922 40 WP MM NOT_NAMED 1922-07-30 12:00:00 NR 12.9116 135.334 main 1055 959 __________P___ -1 12.9116 135.334 7 21 290
1922211N12140 1922 40 WP MM NOT_NAMED 1922-07-30 15:00:00 NR 13.2801 134.342 main 959 872 __________P___ -1 13.2801 134.342 7 21 292
1922211N12140 1922 40 WP MM NOT_NAMED 1922-07-30 18:00:00 NR 13.6794 133.364 main 872 777 __________P___ -1 13.6794 133.364 7 20 293
1922211N12140 1922 40 WP MM NOT_NAMED 1922-07-30 21:00:00 NR 14.0749 132.411 main 777 759 __________P___ -1 14.0749 132.411 7 20 293
1922211N12140 1922 40 WP MM NOT_NAMED 1922-07-30 22:00:00 NR 14.2000 132.100 main 749 694 __________O___ -1 14.2000 132.100 7 19 291
1922211N12140 1922 40 WP MM NOT_NAMED 1922-07-31 00:00:00 NR 14.4162 131.485 main 694 618 __________P___ -1 14.4162 131.485 7 19 290
1922211N12140 1922 40 WP MM NOT_NAMED 1922-07-31 03:00:00 NR 14.7223 130.589 main 618 551 __________P___ -1 14.7223 130.589 7 18 289
1922211N12140 1922 40 WP MM NOT_NAMED 1922-07-31 06:00:00 NR 15.0150 129.720 main 551 505 __________P___ -1 15.0150 129.720 7 18 289
1922211N12140 1922 40 WP MM NOT_NAMED 1922-07-31 09:00:00 NR 15.3033 128.876 main 505 482 __________P___ -1 15.3033 128.876 7 17 290
1922211N12140 1922 40 WP MM NOT_NAMED 1922-07-31 10:00:00 NR 15.4000 128.600 main 482 431 __________O___ -1 15.4000 128.600 7 18 290
1922211N12140 1922 40 WP MM NOT_NAMED 1922-07-31 12:00:00 NR 15.6158 128.005 main 431 366 __________P___ -1 15.6158 128.005 7 18 291
1922211N12140 1922 40 WP MM NOT_NAMED 1922-07-31 15:00:00 NR 15.9401 127.131 main 366 326 __________P___ -1 15.9401 127.131 7 17 291
1922211N12140 1922 40 WP MM NOT_NAMED 1922-07-31 18:00:00 NR 16.2480 126.317 main 326 312 __________P___ -1 16.2480 126.317 7 16 292
1922211N12140 1922 40 WP MM NOT_NAMED 1922-07-31 21:00:00 NR 16.5203 125.606 main 312 308 __________P___ -1 16.5203 125.606 7 14 292
1922211N12140 1922 40 WP MM NOT_NAMED 1922-07-31 22:00:00 NR 16.6000 125.400 main 310 267 __________O___ -1 16.6000 125.400 3 12 292
1922211N12140 1922 40 WP MM NOT_NAMED 1922-08-01 00:00:00 NR 16.7355 125.047 main 267 223 __________P___ -1 16.7355 125.047 3 10 292
1922211N12140 1922 40 WP MM NOT_NAMED 1922-08-01 03:00:00 NR 16.9023 124.625 main 223 191 __________P___ -1 16.9023 124.625 3 8 293
1922211N12140 1922 40 WP MM NOT_NAMED 1922-08-01 06:00:00 NR 17.0388 124.291 main 191 159 __________P___ -1 17.0388 124.291 3 7 293
1922211N12140 1922 40 WP MM NOT_NAMED 1922-08-01 09:00:00 NR 17.1603 123.997 main 161 150 __________P___ -1 17.1603 123.997 3 6 293
1922211N12140 1922 40 WP MM NOT_NAMED 1922-08-01 10:00:00 NR 17.2000 123.900 main 150 129 __________O___ -1 17.2000 123.900 4 6 288
1922211N12140 1922 40 WP MM NOT_NAMED 1922-08-01 12:00:00 NR 17.2545 123.692 main 131 101 __________P___ -1 17.2545 123.692 4 6 285
1922211N12140 1922 40 WP MM NOT_NAMED 1922-08-01 15:00:00 NR 17.3293 123.393 main 101 75 __________P___ -1 17.3293 123.393 4 6 287
1922211N12140 1922 40 WP MM NOT_NAMED 1922-08-01 18:00:00 NR 17.4351 123.084 main 75 46 __________P___ -1 17.4351 123.084 4 7 294
1922211N12140 1922 40 WP MM NOT_NAMED 1922-08-01 21:00:00 NR 17.6156 122.732 main 46 46 __________P___ -1 17.6156 122.732 4 8 300
1922211N12140 1922 40 WP MM NOT_NAMED 1922-08-01 22:00:00 NR 17.7000 122.600 main 49 21 __________O___ -1 17.7000 122.600 4 10 306
1922211N12140 1922 40 WP MM NOT_NAMED 1922-08-02 00:00:00 NR 17.9183 122.288 main 21 0 __________P___ -1 17.9183 122.288 4 12 308
1922211N12140 1922 40 WP MM NOT_NAMED 1922-08-02 03:00:00 NR 18.3273 121.770 main 0 0 __________P___ -1 18.3273 121.770 4 14 311
1922211N12140 1922 40 WP MM NOT_NAMED 1922-08-02 06:00:00 NR 18.8063 121.220 main 33 33 __________P___ -1 18.8063 121.220 4 14 314
1922211N12140 1922 40 WP MM NOT_NAMED 1922-08-02 09:00:00 NR 19.3241 120.675 main 79 91 __________P___ -1 19.3241 120.675 4 15 316
1922211N12140 1922 40 WP MM NOT_NAMED 1922-08-02 10:00:00 NR 19.5000 120.500 main 105 105 __________O___ -1 19.5000 120.500 4 14 318
1922211N12140 1922 40 WP MM NOT_NAMED 1922-08-02 12:00:00 NR 19.8294 120.200 main 148 158 __________P___ -1 19.8294 120.200 4 13 321
1922211N12140 1922 40 WP MM NOT_NAMED 1922-08-02 15:00:00 NR 20.3429 119.770 main 201 182 __________P___ -1 20.3429 119.770 4 13 322
1922211N12140 1922 40 WP MM NOT_NAMED 1922-08-02 18:00:00 NR 20.8743 119.337 main 183 176 __________P___ -1 20.8743 119.337 4 14 322
1922211N12140 1922 40 WP MM NOT_NAMED 1922-08-02 21:00:00 NR 21.4174 118.869 main 189 190 __________P___ -1 21.4174 118.869 4 14 321
1922211N12140 1922 40 WP MM NOT_NAMED 1922-08-02 22:00:00 NR 21.6000 118.700 main 193 191 __________O___ -1 21.6000 118.700 4 15 319
1922211N12140 1922 40 WP MM NOT_NAMED 1922-08-03 00:00:00 NR 21.9651 118.359 main 203 132 __________P___ -1 21.9651 118.359 4 15 318
1922211N12140 1922 40 WP MM NOT_NAMED 1922-08-03 03:00:00 NR 22.5194 117.804 main 132 45 __________P___ -1 22.5194 117.804 4 16 315
1922211N12140 1922 40 WP MM NOT_NAMED 1922-08-03 06:00:00 NR 23.0743 117.179 main 45 0 __________P___ -1 23.0743 117.179 4 17 312
1922211N12140 1922 40 WP MM NOT_NAMED 1922-08-03 09:00:00 NR 23.6211 116.463 main 0 0 __________P___ -1 23.6211 116.463 4 17 309
1922211N12140 1922 40 WP MM NOT_NAMED 1922-08-03 10:00:00 NR 23.8000 116.200 main 0 0 __________O___ -1 23.8000 116.200 7 19 305
1922211N12140 1922 40 WP MM NOT_NAMED 1922-08-03 12:00:00 NR 24.1513 115.636 main 0 0 __________P___ -1 24.1513 115.636 7 19 302
1922211N12140 1922 40 WP MM NOT_NAMED 1922-08-03 15:00:00 NR 24.6630 114.708 main 0 0 __________P___ -1 24.6630 114.708 7 20 300
1922211N12140 1922 40 WP MM NOT_NAMED 1922-08-03 18:00:00 NR 25.1588 113.705 main 0 0 __________P___ -1 25.1588 113.705 7 21 298
1922211N12140 1922 40 WP MM NOT_NAMED 1922-08-03 21:00:00 NR 25.6414 112.655 main 0 0 __________P___ -1 25.6414 112.655 7 21 297
1922211N12140 1922 40 WP MM NOT_NAMED 1922-08-03 22:00:00 NR 25.8000 112.300 main 0 __________O___ -1 25.8000 112.300 7 21 296

Digital Typhoon Data and Search

About IBTrACS Database

This database is a web-friendly format of International Best Track Archive for Climate Stewardship (IBTrACS), a global best track data archive curated by NOAA dating back to 1842.

Updated: 2021-12-06